createdAt,value
2018-02-27T00:00:00.426Z,22.00
2018-02-27T00:02:29.615Z,22.45
2018-02-27T00:04:59.680Z,29.60
2018-02-27T00:07:28.848Z,25.98
2018-02-27T00:09:58.004Z,24.08
2018-02-27T00:12:27.203Z,30.60
2018-02-27T00:14:56.392Z,25.30
2018-02-27T00:17:27.567Z,22.90
2018-02-27T00:19:56.779Z,21.02
2018-02-27T00:22:25.987Z,22.80
2018-02-27T00:24:55.160Z,22.58
2018-02-27T00:27:24.335Z,19.70
2018-02-27T00:29:53.521Z,19.50
2018-02-27T00:32:24.273Z,19.95
2018-02-27T00:34:53.471Z,25.20
2018-02-27T00:37:22.642Z,24.27
2018-02-27T00:39:51.814Z,18.42
2018-02-27T00:44:56.171Z,23.40
2018-02-27T00:47:25.370Z,17.85
2018-02-27T00:49:54.552Z,17.35
2018-02-27T00:52:23.755Z,16.77
2018-02-27T00:54:52.915Z,16.70
2018-02-27T00:57:22.077Z,15.30
2018-02-27T00:59:52.250Z,15.82
2018-02-27T01:02:21.443Z,20.70
2018-02-27T01:04:50.598Z,17.60
2018-02-27T01:07:19.800Z,16.70
2018-02-27T01:09:48.987Z,13.95
2018-02-27T01:12:18.183Z,14.85
2018-02-27T01:17:22.546Z,20.25
2018-02-27T01:19:51.715Z,17.02
2018-02-27T01:22:20.944Z,15.65
2018-02-27T01:24:50.164Z,16.95
2018-02-27T01:27:19.419Z,13.88
2018-02-27T01:29:57.543Z,16.27
2018-02-27T01:32:26.771Z,14.18
2018-02-27T01:34:55.960Z,14.93
2018-02-27T01:37:26.730Z,13.25
2018-02-27T01:39:56.928Z,12.68
2018-02-27T01:42:26.110Z,12.95
2018-02-27T01:44:55.283Z,13.95
2018-02-27T01:47:25.088Z,15.80
2018-02-27T01:49:57.857Z,15.60
2018-02-27T01:52:27.038Z,20.62
2018-02-27T01:54:56.217Z,20.73
2018-02-27T01:57:26.362Z,18.67
2018-02-27T01:59:55.534Z,15.55
2018-02-27T02:02:24.771Z,14.73
2018-02-27T02:04:53.947Z,12.13
2018-02-27T02:07:23.120Z,12.93
2018-02-27T02:09:52.282Z,14.43
2018-02-27T02:12:21.459Z,12.00
2018-02-27T02:17:25.826Z,19.42
2018-02-27T02:19:55.031Z,16.25
2018-02-27T02:22:24.206Z,14.80
2018-02-27T02:27:28.605Z,19.95
2018-02-27T02:29:57.775Z,20.75
2018-02-27T02:32:27.272Z,14.55
2018-02-27T02:34:57.386Z,14.27
2018-02-27T02:37:26.533Z,15.55
2018-02-27T02:39:55.751Z,11.75
2018-02-27T02:42:24.975Z,13.75
2018-02-27T02:44:55.120Z,13.07
2018-02-27T02:47:24.294Z,13.00
2018-02-27T02:49:53.458Z,10.70
2018-02-27T02:52:22.623Z,13.52
2018-02-27T02:54:51.827Z,12.43
2018-02-27T02:57:21.960Z,13.27
2018-02-27T02:59:51.139Z,13.88
2018-02-27T03:02:20.307Z,14.32
2018-02-27T03:04:49.565Z,12.37
2018-02-27T03:07:18.749Z,11.35
2018-02-27T03:09:47.895Z,13.60
2018-02-27T03:12:17.067Z,12.95
2018-02-27T03:15:01.199Z,18.52
2018-02-27T03:17:30.407Z,15.05
2018-02-27T03:20:00.639Z,14.20
2018-02-27T03:22:29.822Z,11.35
2018-02-27T03:24:58.971Z,14.50
2018-02-27T03:27:28.152Z,13.05
2018-02-27T03:29:57.304Z,19.87
2018-02-27T03:32:26.487Z,13.95
2018-02-27T03:34:55.660Z,16.87
2018-02-27T03:37:25.742Z,15.63
2018-02-27T03:39:55.013Z,12.40
2018-02-27T03:42:24.191Z,12.90
2018-02-27T03:44:53.363Z,12.30
2018-02-27T03:49:58.268Z,19.83
2018-02-27T03:52:27.408Z,15.50
2018-02-27T03:54:56.627Z,13.57
2018-02-27T03:57:25.771Z,14.73
2018-02-27T03:59:55.016Z,15.90
2018-02-27T04:04:59.375Z,19.33
2018-02-27T04:07:28.599Z,15.85
2018-02-27T04:09:59.213Z,14.35
2018-02-27T04:12:28.385Z,13.98
2018-02-27T04:14:58.520Z,12.20
2018-02-27T04:17:27.715Z,14.73
2018-02-27T04:19:56.918Z,13.80
2018-02-27T04:22:26.081Z,11.23
2018-02-27T04:24:55.254Z,12.23
2018-02-27T04:27:24.469Z,13.60
2018-02-27T04:29:53.616Z,20.70
2018-02-27T04:32:22.804Z,16.02
2018-02-27T04:34:51.971Z,15.80
2018-02-27T04:37:21.143Z,13.45
2018-02-27T04:39:50.351Z,19.10
2018-02-27T04:42:19.547Z,15.77
2018-02-27T04:44:49.055Z,13.40
2018-02-27T04:47:18.287Z,13.52
2018-02-27T04:49:47.463Z,12.43
2018-02-27T04:52:16.689Z,19.80
2018-02-27T04:54:45.878Z,16.00
2018-02-27T04:57:15.027Z,20.52
2018-02-27T04:59:55.952Z,16.87
2018-02-27T05:02:25.108Z,15.88
2018-02-27T05:04:54.287Z,13.48
2018-02-27T05:07:23.439Z,14.27
2018-02-27T05:09:52.643Z,14.85
2018-02-27T05:12:21.848Z,21.10
2018-02-27T05:14:51.049Z,16.90
2018-02-27T05:17:20.293Z,15.57
2018-02-27T05:20:01.270Z,15.60
2018-02-27T05:22:30.909Z,14.60
2018-02-27T05:25:00.140Z,21.12
2018-02-27T05:27:29.338Z,16.15
2018-02-27T05:29:58.480Z,16.12
2018-02-27T05:32:27.643Z,14.20
2018-02-27T05:34:56.824Z,14.02
2018-02-27T05:37:26.013Z,16.12
2018-02-27T05:39:56.164Z,14.00
2018-02-27T05:42:25.372Z,13.25
2018-02-27T05:44:54.556Z,13.90
2018-02-27T05:49:59.923Z,21.40
2018-02-27T05:52:29.118Z,22.52
2018-02-27T05:54:58.319Z,19.08
2018-02-27T05:57:27.495Z,19.15
2018-02-27T05:59:56.667Z,17.35
2018-02-27T06:02:25.946Z,15.20
2018-02-27T06:04:55.164Z,22.27
2018-02-27T06:07:24.347Z,20.67
2018-02-27T06:09:53.515Z,17.73
2018-02-27T06:12:22.727Z,18.17
2018-02-27T06:14:51.903Z,15.55
2018-02-27T06:17:21.209Z,16.37
2018-02-27T06:19:50.408Z,15.57
2018-02-27T06:22:20.294Z,15.98
2018-02-27T06:24:49.460Z,16.55
2018-02-27T06:27:18.660Z,16.95
2018-02-27T06:29:48.755Z,16.37
2018-02-27T06:32:17.944Z,15.32
2018-02-27T06:34:47.114Z,17.67
2018-02-27T06:37:16.419Z,23.08
2018-02-27T06:39:45.575Z,19.87
2018-02-27T06:42:14.752Z,18.02
2018-02-27T06:44:44.971Z,18.02
2018-02-27T06:47:14.182Z,24.25
2018-02-27T06:49:44.504Z,22.05
2018-02-27T06:52:13.669Z,18.73
2018-02-27T06:54:42.872Z,24.23
2018-02-27T06:57:12.050Z,21.80
2018-02-27T06:59:41.227Z,19.33
2018-02-27T07:02:10.394Z,18.48
2018-02-27T07:04:39.584Z,17.70
2018-02-27T07:07:08.779Z,17.25
2018-02-27T07:09:37.955Z,17.95
2018-02-27T07:12:07.124Z,17.92
2018-02-27T07:14:36.310Z,16.73
2018-02-27T07:17:05.480Z,25.77
2018-02-27T07:22:09.933Z,25.90
2018-02-27T07:24:39.150Z,21.02
2018-02-27T07:27:14.808Z,18.95
2018-02-27T07:29:44.041Z,19.10
2018-02-27T07:32:13.229Z,19.35
2018-02-27T07:34:42.460Z,19.00
2018-02-27T07:37:11.627Z,18.17
2018-02-27T07:39:40.979Z,17.80
2018-02-27T07:42:10.136Z,25.50
2018-02-27T07:44:55.569Z,20.92
2018-02-27T07:47:25.467Z,26.55
2018-02-27T07:49:54.639Z,22.77
2018-02-27T07:52:23.799Z,20.67
2018-02-27T07:54:52.960Z,18.37
2018-02-27T07:57:22.142Z,19.62
2018-02-27T07:59:51.286Z,18.90
2018-02-27T08:02:20.494Z,18.58
2018-02-27T08:04:49.660Z,20.15
2018-02-27T08:07:18.832Z,19.30
2018-02-27T08:09:47.987Z,18.98
2018-02-27T08:12:17.186Z,26.00
2018-02-27T08:17:22.047Z,26.35
2018-02-27T08:19:51.184Z,20.85
2018-02-27T08:22:20.388Z,22.13
2018-02-27T08:24:50.302Z,25.77
2018-02-27T08:27:20.109Z,27.35
2018-02-27T08:29:55.655Z,22.00
2018-02-27T08:32:24.823Z,25.30
2018-02-27T08:34:54.024Z,25.35
2018-02-27T08:37:23.159Z,23.27
2018-02-27T08:39:52.355Z,21.12
2018-02-27T08:42:21.500Z,25.48
2018-02-27T08:44:50.700Z,24.05
2018-02-27T08:47:19.840Z,22.35
2018-02-27T08:49:49.007Z,27.40
2018-02-27T08:52:18.151Z,24.48
2018-02-27T08:54:47.351Z,23.67
2018-02-27T08:57:16.502Z,21.25
2018-02-27T08:59:45.795Z,22.85
2018-02-27T09:02:14.975Z,21.95
2018-02-27T09:04:44.151Z,22.10
2018-02-27T09:07:13.318Z,22.10
2018-02-27T09:09:42.460Z,22.23
2018-02-27T09:12:11.640Z,21.60
2018-02-27T09:17:16.513Z,27.30
2018-02-27T09:19:45.666Z,28.10
2018-02-27T09:22:14.829Z,24.23
2018-02-27T09:24:44.011Z,29.40
2018-02-27T09:27:13.158Z,28.35
2018-02-27T09:29:42.330Z,25.97
2018-02-27T09:32:11.476Z,29.08
2018-02-27T09:34:40.724Z,30.33
2018-02-27T09:37:09.890Z,25.27
2018-02-27T09:39:39.071Z,29.27
2018-02-27T09:42:08.224Z,26.37
2018-02-27T09:47:19.579Z,29.98
2018-02-27T09:49:48.754Z,26.70
2018-02-27T09:52:17.902Z,29.90
2018-02-27T09:54:47.119Z,30.27
2018-02-27T09:57:16.277Z,24.20
2018-02-27T10:02:20.687Z,29.67
2018-02-27T10:04:49.852Z,29.10
2018-02-27T10:07:19.009Z,29.73
2018-02-27T10:09:48.159Z,26.10
2018-02-27T10:12:17.369Z,30.33
2018-02-27T10:17:32.163Z,30.52
2018-02-27T10:20:01.325Z,25.77
2018-02-27T10:22:30.491Z,30.17
2018-02-27T10:24:59.656Z,24.40
2018-02-27T10:27:28.839Z,30.20
2018-02-27T10:29:57.980Z,25.23
2018-02-27T10:32:27.252Z,29.20
2018-02-27T10:34:56.469Z,30.02
2018-02-27T10:37:25.695Z,25.80
2018-02-27T10:39:54.883Z,29.52
2018-02-27T10:42:24.047Z,30.30
2018-02-27T10:44:53.228Z,24.27
2018-02-27T10:47:22.363Z,28.62
2018-02-27T10:49:51.522Z,29.93
2018-02-27T10:52:20.726Z,23.77
2018-02-27T10:54:55.836Z,28.80
2018-02-27T11:00:04.539Z,29.27
2018-02-27T11:02:33.696Z,24.73
2018-02-27T11:05:03.404Z,22.03
2018-02-27T11:07:32.579Z,28.30
2018-02-27T11:10:01.755Z,29.35
2018-02-27T11:12:30.922Z,27.03
2018-02-27T11:15:03.922Z,28.00
2018-02-27T11:17:33.095Z,25.00
2018-02-27T11:20:02.996Z,30.10
2018-02-27T11:22:32.181Z,26.87
2018-02-27T11:25:01.413Z,23.10
2018-02-27T11:27:30.591Z,28.70
2018-02-27T11:30:01.282Z,25.80
2018-02-27T11:32:30.435Z,27.23
2018-02-27T11:34:59.625Z,24.50
2018-02-27T11:37:28.807Z,28.67
2018-02-27T11:39:57.961Z,23.60
2018-02-27T11:42:27.107Z,27.35
2018-02-27T11:44:56.338Z,27.60
2018-02-27T11:47:25.528Z,26.42
2018-02-27T11:49:54.696Z,23.60
2018-02-27T11:52:23.861Z,26.50
2018-02-27T11:54:53.028Z,26.63
2018-02-27T11:59:57.899Z,27.15
2018-02-27T12:02:27.086Z,24.07
2018-02-27T12:04:56.281Z,23.77
2018-02-27T12:07:25.504Z,22.23
2018-02-27T12:09:54.663Z,28.23
2018-02-27T12:12:23.819Z,23.20
2018-02-27T12:14:52.985Z,24.67
2018-02-27T12:17:22.156Z,26.70
2018-02-27T12:19:51.360Z,23.43
2018-02-27T12:22:29.967Z,21.02
2018-02-27T12:24:59.152Z,21.87
2018-02-27T12:27:28.337Z,23.42
2018-02-27T12:29:57.491Z,23.73
2018-02-27T12:32:26.665Z,20.50
2018-02-27T12:34:55.823Z,19.40
2018-02-27T12:37:24.986Z,22.23
2018-02-27T12:42:29.393Z,21.23
2018-02-27T12:44:58.602Z,19.30
2018-02-27T12:47:27.824Z,17.63
2018-02-27T12:49:56.988Z,18.80
2018-02-27T12:52:26.138Z,17.30
2018-02-27T12:54:55.295Z,19.00
2018-02-27T12:57:24.446Z,16.63
2018-02-27T12:59:53.641Z,19.55
2018-02-27T13:02:23.823Z,16.80
2018-02-27T13:04:52.999Z,18.92
2018-02-27T13:07:22.171Z,17.10
2018-02-27T13:09:51.346Z,15.93
2018-02-27T13:12:20.518Z,15.37
2018-02-27T13:14:49.746Z,18.50
2018-02-27T13:17:18.907Z,16.03
2018-02-27T13:19:48.051Z,16.30
2018-02-27T13:22:17.221Z,15.37
2018-02-27T13:24:46.412Z,18.58
2018-02-27T13:27:15.578Z,16.80
2018-02-27T13:29:44.708Z,16.70
2018-02-27T13:32:13.860Z,16.00
2018-02-27T13:34:43.034Z,19.58
2018-02-27T13:37:12.218Z,18.97
2018-02-27T13:39:41.586Z,20.67
2018-02-27T13:42:10.728Z,16.80
2018-02-27T13:44:41.097Z,17.70
2018-02-27T13:47:10.252Z,19.00
2018-02-27T13:52:14.635Z,20.52
2018-02-27T13:54:43.939Z,21.55
2018-02-27T13:57:13.076Z,20.83
2018-02-27T13:59:42.238Z,20.20
2018-02-27T14:02:11.387Z,19.10
2018-02-27T14:04:41.316Z,22.20
2018-02-27T14:07:10.519Z,20.63
2018-02-27T14:12:14.895Z,22.05
2018-02-27T14:14:44.102Z,19.10
2018-02-27T14:17:13.260Z,19.57
2018-02-27T14:19:42.400Z,20.65
2018-02-27T14:22:11.573Z,17.80
2018-02-27T14:24:41.636Z,17.90
2018-02-27T14:27:10.800Z,17.93
2018-02-27T14:29:41.389Z,21.90
2018-02-27T14:32:10.560Z,18.40
2018-02-27T14:34:41.131Z,17.93
2018-02-27T14:37:10.299Z,17.60
2018-02-27T14:39:40.842Z,17.87
2018-02-27T14:42:10.023Z,18.90
2018-02-27T14:44:40.745Z,22.77
2018-02-27T14:47:09.936Z,18.47
2018-02-27T14:49:40.426Z,22.75
2018-02-27T14:52:09.599Z,21.00
2018-02-27T14:57:19.869Z,22.60
2018-02-27T14:59:53.192Z,17.47
2018-02-27T15:02:26.629Z,18.70
2018-02-27T15:05:01.971Z,18.57
2018-02-27T15:07:35.483Z,18.67
2018-02-27T15:10:14.747Z,17.70
2018-02-27T15:12:50.158Z,18.30
2018-02-27T15:15:25.012Z,22.17
2018-02-27T15:17:57.934Z,22.55
2018-02-27T15:20:27.120Z,19.23
2018-02-27T15:25:31.633Z,23.35
2018-02-27T15:28:00.823Z,20.23
2018-02-27T15:30:30.107Z,23.15
2018-02-27T15:33:00.256Z,20.93
2018-02-27T15:35:29.794Z,22.35
2018-02-27T15:37:59.177Z,23.27
2018-02-27T15:40:28.409Z,22.65
2018-02-27T15:42:59.679Z,18.80
2018-02-27T15:45:29.281Z,21.25
2018-02-27T15:47:59.516Z,23.12
2018-02-27T15:50:29.138Z,18.30
2018-02-27T15:52:58.794Z,21.60
2018-02-27T15:55:28.032Z,22.73
2018-02-27T15:57:57.824Z,16.67
2018-02-27T16:00:27.140Z,21.33
2018-02-27T16:02:56.416Z,18.70
2018-02-27T16:05:35.699Z,21.00
2018-02-27T16:08:05.874Z,19.40
2018-02-27T16:10:35.734Z,18.17
2018-02-27T16:13:04.896Z,23.10
2018-02-27T16:15:34.665Z,22.87
2018-02-27T16:18:04.112Z,19.25
2018-02-27T16:20:33.628Z,20.65
2018-02-27T16:23:02.791Z,24.50
2018-02-27T16:25:31.969Z,23.40
2018-02-27T16:28:01.140Z,41.75
2018-02-27T16:30:30.331Z,23.25
2018-02-27T16:33:00.521Z,27.60
2018-02-27T16:35:29.818Z,28.75
2018-02-27T16:37:59.004Z,37.83
2018-02-27T16:40:28.729Z,41.53
2018-02-27T16:42:58.897Z,24.83
2018-02-27T16:45:28.176Z,22.10
2018-02-27T16:47:57.348Z,21.45
2018-02-27T16:50:26.542Z,25.80
2018-02-27T16:52:55.804Z,26.75
2018-02-27T16:55:25.057Z,21.80
2018-02-27T16:57:54.266Z,20.73
2018-02-27T17:00:23.440Z,26.15
2018-02-27T17:02:52.601Z,20.00
2018-02-27T17:05:22.898Z,17.95
2018-02-27T17:07:52.600Z,17.65
2018-02-27T17:10:26.122Z,17.08
2018-02-27T17:12:55.313Z,15.70
2018-02-27T17:15:24.627Z,17.70
2018-02-27T17:17:57.567Z,16.80
2018-02-27T17:20:27.015Z,16.55
2018-02-27T17:22:56.315Z,16.27
2018-02-27T17:25:25.473Z,17.95
2018-02-27T17:27:54.704Z,18.50
2018-02-27T17:30:23.920Z,17.25
2018-02-27T17:32:53.055Z,19.27
2018-02-27T17:35:22.299Z,20.15
2018-02-27T17:37:51.437Z,18.15
2018-02-27T17:40:20.607Z,15.70
2018-02-27T17:42:49.879Z,17.33
2018-02-27T17:47:55.079Z,25.23
2018-02-27T17:50:25.470Z,22.90
2018-02-27T17:52:55.340Z,17.55
2018-02-27T17:55:24.705Z,17.00
2018-02-27T17:58:00.402Z,18.37
2018-02-27T18:00:31.134Z,17.40
2018-02-27T18:03:00.733Z,19.73
2018-02-27T18:05:29.908Z,19.87
2018-02-27T18:07:59.077Z,20.02
2018-02-27T18:10:28.290Z,25.52
2018-02-27T18:12:57.624Z,21.25
2018-02-27T18:15:26.859Z,21.10
2018-02-27T18:17:56.064Z,17.83
2018-02-27T18:20:25.223Z,20.48
2018-02-27T18:22:54.392Z,24.05
2018-02-27T18:25:23.587Z,26.52
2018-02-27T18:28:05.008Z,24.05
2018-02-27T18:30:34.825Z,21.62
2018-02-27T18:33:03.997Z,21.70
2018-02-27T18:35:33.199Z,29.15
2018-02-27T18:38:02.372Z,25.27
2018-02-27T18:40:31.595Z,23.20
2018-02-27T18:43:00.826Z,21.17
2018-02-27T18:45:30.039Z,28.80
2018-02-27T18:48:01.729Z,20.58
2018-02-27T18:50:31.083Z,30.80
2018-02-27T18:53:00.557Z,23.50
2018-02-27T18:58:05.731Z,41.55
2018-02-27T19:00:34.981Z,39.50
2018-02-27T19:03:04.622Z,37.58
2018-02-27T19:05:33.840Z,43.08
2018-02-27T19:08:03.031Z,30.92
2018-02-27T19:10:32.242Z,23.60
2018-02-27T19:13:01.904Z,22.10
2018-02-27T19:15:31.229Z,20.75
2018-02-27T19:18:00.616Z,20.23
2018-02-27T19:20:38.795Z,20.55
2018-02-27T19:23:08.015Z,22.73
2018-02-27T19:25:37.291Z,26.90
2018-02-27T19:28:06.576Z,26.02
2018-02-27T19:30:36.179Z,23.83
2018-02-27T19:33:05.705Z,22.75
2018-02-27T19:35:34.911Z,23.10
2018-02-27T19:38:05.188Z,22.17
2018-02-27T19:40:34.608Z,30.50
2018-02-27T19:43:05.340Z,34.13
2018-02-27T19:45:35.035Z,31.23
2018-02-27T19:50:40.588Z,30.00
2018-02-27T19:53:12.213Z,25.83
2018-02-27T19:55:43.144Z,22.45
2018-02-27T19:58:13.157Z,20.80
2018-02-27T20:00:43.285Z,21.95
2018-02-27T20:03:13.583Z,27.73
2018-02-27T20:05:44.073Z,21.92
2018-02-27T20:08:13.879Z,17.62
2018-02-27T20:10:44.036Z,17.35
2018-02-27T20:15:48.932Z,24.35
2018-02-27T20:18:18.524Z,19.92
2018-02-27T20:20:48.597Z,17.12
2018-02-27T20:23:23.333Z,16.37
2018-02-27T20:25:58.683Z,16.87
2018-02-27T20:28:34.864Z,18.65
2018-02-27T20:31:04.121Z,15.77
2018-02-27T20:33:33.342Z,18.40
2018-02-27T20:36:02.877Z,20.45
2018-02-27T20:38:38.547Z,21.95
2018-02-27T20:41:09.194Z,19.80
2018-02-27T20:43:38.719Z,23.58
2018-02-27T20:46:09.306Z,21.70
2018-02-27T20:48:38.541Z,21.25
2018-02-27T20:51:08.155Z,21.62
2018-02-27T20:53:37.370Z,21.17
2018-02-27T20:56:06.600Z,19.98
2018-02-27T20:58:36.027Z,15.68
2018-02-27T21:01:05.791Z,15.75
2018-02-27T21:03:35.296Z,14.73
2018-02-27T21:06:05.372Z,22.23
2018-02-27T21:08:34.584Z,21.17
2018-02-27T21:11:04.951Z,15.98
2018-02-27T21:13:34.138Z,15.95
2018-02-27T21:16:03.318Z,16.65
2018-02-27T21:18:32.575Z,25.88
2018-02-27T21:21:01.768Z,19.60
2018-02-27T21:23:31.831Z,16.15
2018-02-27T21:28:36.188Z,24.80
2018-02-27T21:31:05.514Z,20.20
2018-02-27T21:33:34.934Z,19.75
2018-02-27T21:36:05.343Z,17.12
2018-02-27T21:41:09.807Z,27.73
2018-02-27T21:43:38.964Z,21.08
2018-02-27T21:46:08.149Z,18.73
2018-02-27T21:48:37.299Z,20.88
2018-02-27T21:51:06.496Z,30.45
2018-02-27T21:53:35.665Z,21.98
2018-02-27T21:56:19.656Z,21.08
2018-02-27T22:01:40.180Z,31.77
2018-02-27T22:04:09.972Z,22.40
2018-02-27T22:06:41.164Z,20.37
2018-02-27T22:09:10.328Z,19.67
2018-02-27T22:11:40.051Z,16.83
2018-02-27T22:14:09.312Z,17.33
2018-02-27T22:16:38.516Z,13.82
2018-02-27T22:19:07.687Z,25.05
2018-02-27T22:21:36.886Z,19.35
2018-02-27T22:24:06.059Z,27.15
2018-02-27T22:26:35.235Z,20.58
2018-02-27T22:29:05.414Z,18.60
2018-02-27T22:31:34.745Z,20.15
2018-02-27T22:34:03.964Z,18.87
2018-02-27T22:36:33.133Z,21.77
2018-02-27T22:39:02.307Z,40.97
2018-02-27T22:41:31.456Z,31.17
2018-02-27T22:44:00.633Z,24.15
2018-02-27T22:46:29.862Z,23.70
2018-02-27T22:48:59.045Z,23.17
2018-02-27T22:51:28.351Z,34.33
2018-02-27T22:53:57.540Z,26.17
2018-02-27T22:56:26.758Z,18.50
2018-02-27T22:58:55.938Z,24.43
2018-02-27T23:01:25.128Z,17.40
2018-02-27T23:03:54.380Z,16.00
2018-02-27T23:06:23.593Z,16.77
2018-02-27T23:08:52.739Z,15.52
2018-02-27T23:11:21.930Z,25.17
2018-02-27T23:13:59.164Z,19.50
2018-02-27T23:16:28.337Z,16.87
2018-02-27T23:18:57.577Z,16.40
2018-02-27T23:21:26.753Z,16.48
2018-02-27T23:24:04.131Z,16.15
2018-02-27T23:26:40.108Z,15.15
2018-02-27T23:31:46.580Z,27.23
2018-02-27T23:34:24.028Z,28.48
2018-02-27T23:36:53.199Z,20.48
2018-02-27T23:39:22.382Z,18.48
2018-02-27T23:41:51.565Z,18.80
2018-02-27T23:44:21.831Z,20.60
2018-02-27T23:46:52.063Z,16.00
2018-02-27T23:49:21.231Z,27.50
2018-02-27T23:51:50.427Z,21.75
2018-02-27T23:54:19.605Z,18.50
2018-02-27T23:56:48.767Z,17.85
2018-02-27T23:59:17.967Z,17.90
